createdAt,value
2022-09-28T00:01:18.893Z,13.15
2022-09-28T00:03:47.910Z,14.18
2022-09-28T00:06:19.553Z,13.02
2022-09-28T00:08:47.496Z,13.18
2022-09-28T00:11:18.905Z,13.52
2022-09-28T00:13:49.895Z,12.98
2022-09-28T00:16:19.779Z,13.20
2022-09-28T00:18:47.402Z,13.88
2022-09-28T00:21:17.222Z,12.18
2022-09-28T00:24:04.151Z,13.15
2022-09-28T00:26:33.180Z,12.57
2022-09-28T00:29:02.299Z,13.13
2022-09-28T00:31:33.093Z,13.18
2022-09-28T00:34:02.048Z,13.60
2022-09-28T00:36:32.118Z,13.20
2022-09-28T00:39:04.562Z,13.15
2022-09-28T00:41:31.972Z,12.80
2022-09-28T00:44:27.016Z,14.57
2022-09-28T00:47:01.376Z,12.50
2022-09-28T00:49:44.034Z,12.98
2022-09-28T00:52:15.797Z,12.07
2022-09-28T00:54:45.399Z,12.30
2022-09-28T00:57:13.914Z,12.50
2022-09-28T00:59:42.355Z,11.98
2022-09-28T01:02:10.696Z,12.82
2022-09-28T01:04:39.086Z,12.82
2022-09-28T01:07:09.160Z,12.93
2022-09-28T01:09:40.788Z,12.75
2022-09-28T01:12:08.519Z,13.90
2022-09-28T01:14:35.857Z,12.82
2022-09-28T01:17:06.843Z,13.45
2022-09-28T01:20:05.725Z,13.55
2022-09-28T01:22:45.259Z,13.70
2022-09-28T01:25:25.678Z,13.57
2022-09-28T01:27:59.880Z,12.27
2022-09-28T01:30:27.351Z,12.90
2022-09-28T01:33:06.767Z,14.07
2022-09-28T01:35:43.321Z,14.02
2022-09-28T01:38:18.027Z,13.93
2022-09-28T01:40:48.027Z,15.27
2022-09-28T01:43:20.590Z,15.57
2022-09-28T01:46:05.038Z,14.63
2022-09-28T01:48:45.288Z,15.13
2022-09-28T01:51:21.587Z,15.00
2022-09-28T01:53:53.678Z,15.50
2022-09-28T01:56:34.159Z,16.25
2022-09-28T01:59:10.763Z,14.65
2022-09-28T02:01:46.094Z,15.93
2022-09-28T02:04:19.884Z,14.75
2022-09-28T02:07:01.108Z,17.17
2022-09-28T02:09:49.779Z,16.70
2022-09-28T02:12:24.871Z,16.45
2022-09-28T02:14:58.947Z,16.92
2022-09-28T02:17:26.418Z,17.58
2022-09-28T02:19:53.667Z,16.60
2022-09-28T02:22:40.726Z,17.63
2022-09-28T02:25:27.211Z,16.90
2022-09-28T02:28:04.706Z,16.52
2022-09-28T02:30:35.773Z,18.25
2022-09-28T02:33:12.635Z,17.48
2022-09-28T02:35:42.207Z,17.65
2022-09-28T02:38:13.726Z,17.80
2022-09-28T02:40:48.426Z,16.88
2022-09-28T02:43:27.339Z,17.17
2022-09-28T02:46:03.881Z,18.40
2022-09-28T02:49:22.303Z,17.67
2022-09-28T02:52:03.996Z,17.83
2022-09-28T02:54:33.892Z,18.08
2022-09-28T02:57:17.462Z,18.92
2022-09-28T02:59:59.801Z,17.45
2022-09-28T03:02:50.063Z,18.55
2022-09-28T03:05:25.721Z,16.90
2022-09-28T03:07:58.979Z,17.92
2022-09-28T03:10:51.972Z,19.45
2022-09-28T03:13:21.024Z,18.10
2022-09-28T03:15:49.076Z,16.80
2022-09-28T03:18:18.424Z,17.10
2022-09-28T03:20:45.882Z,17.83
2022-09-28T03:23:24.303Z,19.27
2022-09-28T03:25:52.727Z,17.58
2022-09-28T03:28:21.332Z,18.73
2022-09-28T03:30:49.734Z,18.95
2022-09-28T03:33:17.503Z,17.27
2022-09-28T03:35:48.425Z,11.40
2022-09-28T03:38:18.616Z,10.77
2022-09-28T03:40:59.952Z,6.80
2022-09-28T03:43:31.275Z,5.00
2022-09-28T03:46:02.273Z,5.63
2022-09-28T03:48:36.502Z,5.18
2022-09-28T03:51:07.168Z,4.55
2022-09-28T03:53:34.314Z,3.80
2022-09-28T03:56:07.563Z,3.42
2022-09-28T03:58:35.557Z,3.80
2022-09-28T04:01:14.172Z,3.70
2022-09-28T04:03:46.128Z,4.20
2022-09-28T04:06:14.108Z,4.28
2022-09-28T04:08:41.325Z,4.50
2022-09-28T04:11:09.598Z,5.05
2022-09-28T04:13:37.339Z,4.13
2022-09-28T04:16:07.122Z,3.70
2022-09-28T04:18:35.936Z,3.22
2022-09-28T04:21:14.275Z,3.88
2022-09-28T04:23:47.495Z,3.38
2022-09-28T04:26:19.714Z,3.03
2022-09-28T04:29:07.273Z,3.35
2022-09-28T04:31:50.597Z,3.15
2022-09-28T04:34:21.002Z,3.40
2022-09-28T04:36:49.991Z,3.70
2022-09-28T04:39:18.342Z,3.30
2022-09-28T04:41:52.191Z,3.10
2022-09-28T04:44:19.680Z,2.78
2022-09-28T04:46:48.095Z,2.60
2022-09-28T04:49:30.710Z,2.33
2022-09-28T04:52:04.282Z,2.05
2022-09-28T04:54:31.870Z,2.25
2022-09-28T04:56:59.098Z,2.20
2022-09-28T04:59:26.389Z,1.95
2022-09-28T05:01:54.250Z,2.20
2022-09-28T05:04:26.166Z,2.17
2022-09-28T05:07:12.126Z,2.40
2022-09-28T05:09:39.499Z,3.25
2022-09-28T05:12:08.230Z,3.55
2022-09-28T05:14:35.975Z,2.85
2022-09-28T05:17:04.800Z,2.78
2022-09-28T05:19:47.931Z,2.72
2022-09-28T05:22:15.915Z,2.92
2022-09-28T05:24:46.885Z,2.72
2022-09-28T05:27:15.147Z,2.45
2022-09-28T05:29:45.590Z,2.47
2022-09-28T05:32:49.248Z,2.70
2022-09-28T05:35:27.746Z,2.42
2022-09-28T05:37:55.559Z,2.15
2022-09-28T05:40:23.318Z,6.50
2022-09-28T05:42:50.560Z,2.22
2022-09-28T05:45:18.187Z,3.22
2022-09-28T05:47:46.296Z,28.40
2022-09-28T05:50:18.813Z,23.40
2022-09-28T05:52:47.147Z,38.45
2022-09-28T05:55:14.540Z,19.50
2022-09-28T05:57:42.551Z,16.75
2022-09-28T06:00:10.370Z,15.90
2022-09-28T06:02:42.010Z,13.43
2022-09-28T06:05:12.144Z,23.15
2022-09-28T06:07:39.493Z,17.33
2022-09-28T06:10:07.457Z,8.75
2022-09-28T06:12:42.705Z,9.40
2022-09-28T06:15:15.742Z,5.80
2022-09-28T06:17:44.372Z,7.50
2022-09-28T06:20:33.539Z,5.97
2022-09-28T06:23:27.341Z,6.40
2022-09-28T06:25:55.283Z,6.00
2022-09-28T06:28:22.510Z,5.80
2022-09-28T06:30:49.952Z,4.65
2022-09-28T06:33:18.823Z,4.40
2022-09-28T06:35:46.543Z,5.57
2022-09-28T06:38:14.224Z,6.70
2022-09-28T06:40:41.645Z,10.00
2022-09-28T06:43:15.223Z,7.43
2022-09-28T06:46:02.589Z,8.00
2022-09-28T06:48:42.709Z,6.80
2022-09-28T06:51:13.797Z,5.38
2022-09-28T06:54:07.288Z,3.85
2022-09-28T06:56:41.197Z,7.60
2022-09-28T06:59:08.324Z,22.83
2022-09-28T07:01:37.394Z,5.35
2022-09-28T07:04:21.019Z,4.45
2022-09-28T07:07:08.948Z,9.30
2022-09-28T07:09:55.619Z,19.08
2022-09-28T07:12:49.813Z,12.70
2022-09-28T07:15:27.640Z,7.80
2022-09-28T07:18:03.707Z,10.48
2022-09-28T07:20:46.345Z,23.95
2022-09-28T07:23:19.853Z,7.60
2022-09-28T07:26:26.039Z,9.88
2022-09-28T07:29:01.954Z,10.63
2022-09-28T07:31:38.659Z,13.77
2022-09-28T07:34:24.329Z,4.47
2022-09-28T07:36:59.672Z,5.13
2022-09-28T07:39:27.233Z,5.68
2022-09-28T07:41:59.686Z,4.85
2022-09-28T07:44:30.306Z,5.75
2022-09-28T07:47:02.652Z,4.68
2022-09-28T07:50:08.614Z,3.87
2022-09-28T07:52:53.220Z,3.03
2022-09-28T07:55:28.473Z,4.13
2022-09-28T07:58:07.453Z,4.38
2022-09-28T08:00:47.660Z,14.57
2022-09-28T08:03:20.099Z,7.15
2022-09-28T08:05:48.181Z,3.90
2022-09-28T08:08:16.197Z,4.45
2022-09-28T08:10:47.317Z,4.30
2022-09-28T08:13:27.529Z,4.10
2022-09-28T08:16:15.950Z,4.30
2022-09-28T08:19:15.865Z,4.57
2022-09-28T08:21:45.947Z,5.50
2022-09-28T08:24:15.710Z,5.57
2022-09-28T08:26:44.296Z,5.30
2022-09-28T08:29:12.910Z,6.13
2022-09-28T08:31:52.568Z,6.53
2022-09-28T08:37:27.289Z,6.90
2022-09-28T08:40:13.648Z,7.40
2022-09-28T08:43:03.117Z,7.35
2022-09-28T08:45:53.674Z,8.23
2022-09-28T08:49:24.188Z,9.52
2022-09-28T08:52:26.056Z,8.43
2022-09-28T08:55:17.329Z,14.48
2022-09-28T08:57:55.363Z,19.63
2022-09-28T09:00:46.739Z,14.10
2022-09-28T09:03:21.271Z,18.38
2022-09-28T09:06:27.648Z,13.68
2022-09-28T09:09:09.954Z,26.08
2022-09-28T09:11:52.168Z,20.40
2022-09-28T09:14:37.023Z,17.85
2022-09-28T09:17:12.563Z,31.52
2022-09-28T09:19:55.402Z,24.65
2022-09-28T09:23:01.085Z,25.00
2022-09-28T09:25:41.379Z,18.23
2022-09-28T09:28:12.674Z,13.57
2022-09-28T09:30:55.259Z,17.20
2022-09-28T09:33:25.852Z,14.93
2022-09-28T09:36:36.567Z,17.73
2022-09-28T09:39:27.001Z,16.58
2022-09-28T09:42:39.019Z,20.95
2022-09-28T09:45:51.544Z,13.75
2022-09-28T09:48:50.800Z,22.00
2022-09-28T09:51:48.981Z,17.67
2022-09-28T09:54:24.090Z,14.82
2022-09-28T09:57:11.172Z,13.80
2022-09-28T10:00:04.431Z,16.73
2022-09-28T10:02:57.305Z,21.60
2022-09-28T10:05:39.073Z,22.02
2022-09-28T10:08:09.310Z,26.27
2022-09-28T10:11:08.591Z,16.58
2022-09-28T10:13:40.806Z,20.88
2022-09-28T10:16:28.130Z,27.63
2022-09-28T10:19:01.038Z,18.13
2022-09-28T10:22:02.687Z,19.40
2022-09-28T10:24:46.884Z,22.58
2022-09-28T10:27:16.898Z,17.02
2022-09-28T10:29:58.006Z,26.23
2022-09-28T10:32:28.349Z,16.70
2022-09-28T10:35:19.134Z,21.58
2022-09-28T10:38:01.770Z,15.73
2022-09-28T10:40:47.896Z,16.30
2022-09-28T10:43:33.688Z,17.88
2022-09-28T10:46:12.166Z,18.13
2022-09-28T10:48:47.163Z,17.05
2022-09-28T10:51:14.659Z,15.68
2022-09-28T10:54:04.402Z,14.43
2022-09-28T10:56:53.596Z,18.50
2022-09-28T11:02:37.637Z,12.07
2022-09-28T11:05:24.210Z,12.75
2022-09-28T11:07:55.967Z,13.57
2022-09-28T11:10:31.412Z,14.60
2022-09-28T11:13:09.724Z,13.70
2022-09-28T11:15:43.446Z,13.35
2022-09-28T11:18:34.499Z,11.60
2022-09-28T11:21:21.853Z,12.63
2022-09-28T11:24:19.266Z,13.18
2022-09-28T11:26:53.075Z,12.38
2022-09-28T11:29:51.138Z,12.93
2022-09-28T11:32:23.059Z,11.55
2022-09-28T11:35:51.819Z,11.07
2022-09-28T11:38:34.239Z,11.30
2022-09-28T11:41:21.171Z,10.35
2022-09-28T11:44:12.751Z,9.93
2022-09-28T11:47:04.170Z,10.70
2022-09-28T11:49:38.583Z,7.78
2022-09-28T11:52:17.532Z,7.90
2022-09-28T11:54:52.640Z,6.90
2022-09-28T11:57:25.242Z,6.00
2022-09-28T11:59:56.669Z,6.18
2022-09-28T12:02:26.910Z,6.72
2022-09-28T12:05:26.051Z,6.93
2022-09-28T12:08:13.456Z,7.40
2022-09-28T12:11:12.777Z,6.90
2022-09-28T12:14:01.852Z,7.00
2022-09-28T12:17:04.058Z,6.75
2022-09-28T12:19:52.446Z,6.60
2022-09-28T12:22:32.342Z,6.00
2022-09-28T12:25:02.135Z,6.47
2022-09-28T12:27:42.352Z,6.53
2022-09-28T12:30:22.308Z,5.88
2022-09-28T12:33:00.967Z,6.45
2022-09-28T12:35:57.621Z,5.72
2022-09-28T12:39:14.731Z,6.10
2022-09-28T12:41:50.125Z,5.45
2022-09-28T12:44:26.212Z,6.20
2022-09-28T12:47:25.398Z,5.80
2022-09-28T12:50:37.603Z,5.47
2022-09-28T12:53:34.487Z,6.10
2022-09-28T12:56:17.985Z,6.43
2022-09-28T12:59:20.966Z,5.65
2022-09-28T13:02:07.054Z,5.50
2022-09-28T13:04:53.931Z,6.20
2022-09-28T13:07:29.939Z,5.53
2022-09-28T13:10:03.363Z,5.32
2022-09-28T13:12:53.451Z,5.57
2022-09-28T13:15:57.072Z,4.93
2022-09-28T13:18:43.339Z,4.70
2022-09-28T13:21:28.397Z,4.20
2022-09-28T13:24:09.049Z,4.03
2022-09-28T13:26:49.207Z,4.00
2022-09-28T13:29:20.151Z,3.70
2022-09-28T13:31:57.577Z,3.75
2022-09-28T13:34:33.502Z,3.50
2022-09-28T13:37:21.905Z,3.22
2022-09-28T13:39:52.688Z,3.53
2022-09-28T13:42:47.577Z,3.85
2022-09-28T13:45:20.407Z,3.25
2022-09-28T13:48:05.570Z,3.58
2022-09-28T13:51:02.876Z,3.38
2022-09-28T13:53:48.376Z,3.72
2022-09-28T13:56:27.626Z,3.65
2022-09-28T13:59:24.383Z,3.20
2022-09-28T14:02:09.985Z,2.92
2022-09-28T14:05:00.472Z,3.20
2022-09-28T14:07:36.822Z,3.28
2022-09-28T14:10:21.105Z,3.30
2022-09-28T14:12:51.361Z,3.20
2022-09-28T14:15:36.974Z,3.28
2022-09-28T14:18:27.529Z,2.95
2022-09-28T14:21:00.681Z,2.80
2022-09-28T14:23:31.046Z,3.22
2022-09-28T14:26:20.840Z,3.15
2022-09-28T14:29:43.664Z,3.65
2022-09-28T14:32:11.084Z,3.58
2022-09-28T14:34:48.003Z,3.88
2022-09-28T14:37:46.019Z,4.30
2022-09-28T14:41:10.063Z,3.88
2022-09-28T14:43:58.668Z,4.15
2022-09-28T14:46:27.526Z,9.65
2022-09-28T14:49:20.594Z,4.40
2022-09-28T14:51:47.797Z,4.35
2022-09-28T14:54:21.299Z,4.35
2022-09-28T14:56:54.426Z,3.92
2022-09-28T14:59:30.502Z,4.50
2022-09-28T15:02:01.375Z,4.85
2022-09-28T15:04:30.874Z,5.15
2022-09-28T15:06:58.201Z,5.85
2022-09-28T15:09:28.592Z,5.20
2022-09-28T15:12:15.145Z,5.05
2022-09-28T15:14:55.552Z,5.53
2022-09-28T15:17:26.933Z,5.65
2022-09-28T15:20:06.258Z,5.95
2022-09-28T15:22:34.254Z,5.43
2022-09-28T15:25:04.226Z,5.68
2022-09-28T15:27:38.044Z,6.18
2022-09-28T15:30:27.129Z,6.57
2022-09-28T15:32:57.096Z,6.82
2022-09-28T15:35:26.718Z,7.03
2022-09-28T15:37:55.486Z,7.20
2022-09-28T15:40:35.331Z,7.82
2022-09-28T15:43:11.613Z,8.40
2022-09-28T15:45:40.674Z,7.97
2022-09-28T15:48:31.072Z,7.63
2022-09-28T15:51:12.903Z,8.05
2022-09-28T15:54:09.242Z,7.25
2022-09-28T15:56:59.922Z,7.53
2022-09-28T15:59:32.313Z,7.15
2022-09-28T16:02:12.777Z,7.25
2022-09-28T16:04:50.722Z,7.70
2022-09-28T16:07:39.909Z,7.88
2022-09-28T16:10:13.654Z,7.63
2022-09-28T16:12:42.605Z,8.43
2022-09-28T16:15:31.332Z,8.23
2022-09-28T16:18:02.721Z,10.57
2022-09-28T16:20:36.466Z,10.30
2022-09-28T16:23:34.132Z,8.70
2022-09-28T16:26:14.319Z,8.85
2022-09-28T16:28:45.854Z,9.30
2022-09-28T16:31:13.237Z,10.40
2022-09-28T16:34:19.846Z,10.50
2022-09-28T16:36:49.731Z,12.57
2022-09-28T16:39:18.844Z,12.00
2022-09-28T16:41:51.664Z,10.77
2022-09-28T16:44:23.730Z,11.25
2022-09-28T16:46:53.942Z,10.90
2022-09-28T16:49:23.720Z,12.45
2022-09-28T16:51:51.186Z,12.52
2022-09-28T16:54:44.018Z,11.70
2022-09-28T16:57:13.531Z,11.68
2022-09-28T16:59:40.963Z,14.18
2022-09-28T17:02:42.118Z,15.57
2022-09-28T17:05:07.181Z,13.55
2022-09-28T17:07:34.738Z,16.48
2022-09-28T17:10:02.084Z,17.23
2022-09-28T17:12:29.713Z,17.30
2022-09-28T17:14:57.650Z,19.05
2022-09-28T17:17:29.863Z,20.05
2022-09-28T17:19:57.330Z,17.85
2022-09-28T17:22:24.573Z,19.05
2022-09-28T17:24:51.762Z,19.85
2022-09-28T17:27:19.944Z,22.63
2022-09-28T17:29:47.221Z,22.55
2022-09-28T17:32:18.713Z,21.75
2022-09-28T17:34:55.969Z,22.40
2022-09-28T17:37:28.615Z,21.48
2022-09-28T17:39:55.966Z,22.50
2022-09-28T17:42:23.147Z,22.75
2022-09-28T17:44:50.351Z,20.90
2022-09-28T17:47:18.165Z,23.23
2022-09-28T17:49:46.142Z,22.88
2022-09-28T17:52:14.255Z,24.30
2022-09-28T17:54:41.891Z,23.00
2022-09-28T17:57:11.016Z,23.00
2022-09-28T17:59:47.738Z,22.08
2022-09-28T18:04:51.750Z,24.55
2022-09-28T18:07:19.690Z,22.15
2022-09-28T18:09:46.848Z,22.52
2022-09-28T18:12:14.025Z,22.30
2022-09-28T18:14:41.566Z,21.52
2022-09-28T18:17:08.737Z,20.85
2022-09-28T18:19:35.899Z,21.92
2022-09-28T18:22:03.260Z,23.58
2022-09-28T18:24:32.531Z,24.33
2022-09-28T18:27:00.113Z,24.30
2022-09-28T18:29:32.250Z,23.92
2022-09-28T18:32:00.826Z,25.65
2022-09-28T18:34:28.208Z,24.08
2022-09-28T18:36:55.327Z,21.20
2022-09-28T18:39:23.877Z,20.50
2022-09-28T18:41:51.647Z,21.50
2022-09-28T18:44:18.890Z,21.48
2022-09-28T18:46:46.201Z,20.83
2022-09-28T18:49:13.690Z,21.08
2022-09-28T18:51:40.880Z,19.27
2022-09-28T18:54:08.098Z,20.38
2022-09-28T18:56:37.375Z,19.85
2022-09-28T18:59:11.271Z,22.38
2022-09-28T19:01:40.091Z,20.10
2022-09-28T19:04:09.686Z,20.90
2022-09-28T19:06:42.137Z,19.75
2022-09-28T19:09:10.379Z,19.50
2022-09-28T19:11:37.961Z,18.63
2022-09-28T19:14:05.457Z,18.55
2022-09-28T19:16:34.151Z,18.15
2022-09-28T19:19:02.789Z,17.83
2022-09-28T19:21:31.084Z,16.88
2022-09-28T19:24:02.640Z,17.92
2022-09-28T19:26:30.626Z,16.20
2022-09-28T19:28:58.619Z,17.13
2022-09-28T19:31:26.962Z,16.15
2022-09-28T19:33:54.177Z,15.52
2022-09-28T19:36:24.653Z,15.45
2022-09-28T19:38:53.286Z,17.75
2022-09-28T19:41:43.787Z,19.95
2022-09-28T19:44:15.800Z,20.90
2022-09-28T19:46:43.503Z,21.30
2022-09-28T19:49:13.484Z,22.58
2022-09-28T19:51:51.646Z,21.10
2022-09-28T19:54:35.534Z,23.55
2022-09-28T19:57:14.514Z,23.23
2022-09-28T19:59:42.248Z,22.33
2022-09-28T20:02:11.185Z,18.95
2022-09-28T20:04:38.540Z,15.98
2022-09-28T20:07:06.147Z,16.30
2022-09-28T20:09:33.829Z,16.40
2022-09-28T20:12:01.256Z,14.80
2022-09-28T20:14:34.034Z,13.23
2022-09-28T20:17:05.585Z,12.98
2022-09-28T20:19:33.772Z,11.57
2022-09-28T20:22:03.339Z,11.70
2022-09-28T20:24:31.960Z,12.73
2022-09-28T20:26:59.562Z,14.55
2022-09-28T20:29:26.887Z,11.13
2022-09-28T20:31:54.449Z,11.80
2022-09-28T20:34:21.752Z,10.65
2022-09-28T20:36:49.210Z,11.15
2022-09-28T20:39:16.822Z,11.68
2022-09-28T20:41:46.214Z,10.52
2022-09-28T20:44:13.516Z,11.30
2022-09-28T20:46:41.100Z,11.38
2022-09-28T20:49:08.423Z,10.38
2022-09-28T20:51:35.930Z,10.93
2022-09-28T20:54:03.327Z,11.35
2022-09-28T20:56:37.910Z,8.65
2022-09-28T20:59:08.258Z,8.75
2022-09-28T21:01:35.949Z,8.90
2022-09-28T21:04:05.469Z,9.07
2022-09-28T21:06:38.758Z,7.90
2022-09-28T21:09:08.324Z,8.85
2022-09-28T21:11:36.144Z,7.72
2022-09-28T21:14:06.845Z,8.45
2022-09-28T21:16:35.070Z,8.30
2022-09-28T21:19:03.318Z,8.07
2022-09-28T21:21:30.651Z,8.80
2022-09-28T21:23:58.788Z,8.77
2022-09-28T21:26:28.486Z,8.75
2022-09-28T21:28:56.984Z,7.10
2022-09-28T21:31:29.176Z,8.40
2022-09-28T21:33:57.693Z,8.00
2022-09-28T21:36:25.896Z,7.78
2022-09-28T21:38:55.163Z,7.43
2022-09-28T21:41:23.849Z,8.00
2022-09-28T21:43:51.915Z,7.82
2022-09-28T21:46:19.227Z,8.30
2022-09-28T21:48:50.542Z,7.90
2022-09-28T21:51:17.774Z,7.47
2022-09-28T21:53:44.985Z,7.68
2022-09-28T21:56:13.169Z,7.60
2022-09-28T21:58:40.772Z,8.18
2022-09-28T22:01:18.333Z,7.93
2022-09-28T22:03:48.598Z,9.15
2022-09-28T22:06:18.849Z,8.52
2022-09-28T22:08:47.212Z,8.10
2022-09-28T22:11:17.363Z,8.05
2022-09-28T22:13:47.241Z,8.25
2022-09-28T22:16:18.573Z,8.15
2022-09-28T22:18:46.358Z,7.93
2022-09-28T22:21:14.993Z,8.13
2022-09-28T22:23:42.613Z,8.23
2022-09-28T22:26:20.161Z,8.20
2022-09-28T22:28:55.302Z,8.20
2022-09-28T22:31:25.353Z,8.88
2022-09-28T22:33:53.383Z,8.20
2022-09-28T22:36:21.074Z,8.45
2022-09-28T22:38:48.780Z,8.93
2022-09-28T22:41:17.671Z,8.93
2022-09-28T22:43:44.954Z,8.50
2022-09-28T22:46:14.834Z,8.82
2022-09-28T22:48:46.462Z,8.68
2022-09-28T22:51:13.881Z,8.63
2022-09-28T22:53:41.422Z,8.90
2022-09-28T22:56:09.599Z,8.93
2022-09-28T22:58:38.237Z,8.93
2022-09-28T23:01:11.779Z,9.32
2022-09-28T23:03:42.688Z,9.13
2022-09-28T23:06:11.265Z,9.02
2022-09-28T23:08:39.002Z,9.27
2022-09-28T23:11:07.597Z,12.20
2022-09-28T23:13:35.246Z,8.68
2022-09-28T23:16:23.598Z,9.05
2022-09-28T23:18:52.377Z,8.77
2022-09-28T23:21:22.290Z,8.52
2022-09-28T23:23:58.059Z,8.32
2022-09-28T23:26:29.532Z,8.77
2022-09-28T23:28:57.271Z,8.57
2022-09-28T23:31:28.052Z,8.07
2022-09-28T23:34:13.642Z,8.13
2022-09-28T23:36:40.982Z,8.05
2022-09-28T23:39:10.052Z,8.20
2022-09-28T23:41:37.409Z,7.97
2022-09-28T23:44:05.090Z,7.90
2022-09-28T23:46:32.849Z,7.80
2022-09-28T23:49:00.057Z,8.25
2022-09-28T23:51:27.416Z,7.78
2022-09-28T23:53:54.813Z,8.75
2022-09-28T23:56:22.048Z,8.45
2022-09-28T23:58:49.253Z,8.82
